Terminal Aerodrome Forecast
Issued by NWS

Home | Current Version | Previous Version | Text Only | Print | Product List | Glossary On
Versions: 1 2 3 4 5 6 7 8 9 10 11 12 13 14 15
000
FTUS44 KCRP 291100
TAFLRD
TAF
KLRD 291122Z 2912/3012 09005KT P6SM SCT016 BKN040
     FM291600 08009KT P6SM SCT035 BKN080
     FM300300 12012KT P6SM SCT025 BKN050
     FM300800 09008KT P6SM SCT015 BKN040=

USA.gov is the U.S. government's official web portal to all federal, state and local government web resources and services.